sensor_id;sensor_type;location;lat;lon;timestamp;P1;P2;P0
65574;PMS5003;52216;54.942;73.394;2023-03-19T00:02:33;0.50;0.50;0.00
65574;PMS5003;52216;54.942;73.394;2023-03-19T00:05:36;0.00;0.00;0.00
65574;PMS5003;52216;54.942;73.394;2023-03-19T00:08:39;0.00;0.00;0.00
65574;PMS5003;52216;54.942;73.394;2023-03-19T00:11:48;0.00;0.00;0.00
65574;PMS5003;52216;54.942;73.394;2023-03-19T00:14:52;0.00;0.00;0.00
65574;PMS5003;52216;54.942;73.394;2023-03-19T00:17:55;0.00;0.00;0.00
65574;PMS5003;52216;54.942;73.394;2023-03-19T00:20:59;0.00;0.00;0.00
65574;PMS5003;52216;54.942;73.394;2023-03-19T00:24:00;0.00;0.00;0.00
65574;PMS5003;52216;54.942;73.394;2023-03-19T00:27:13;0.00;0.00;0.00
65574;PMS5003;52216;54.942;73.394;2023-03-19T00:30:16;0.00;0.00;0.00
65574;PMS5003;52216;54.942;73.394;2023-03-19T00:33:20;0.00;0.00;0.00
65574;PMS5003;52216;54.942;73.394;2023-03-19T00:36:29;0.00;0.00;0.00
65574;PMS5003;52216;54.942;73.394;2023-03-19T00:39:33;0.00;0.00;0.00
65574;PMS5003;52216;54.942;73.394;2023-03-19T00:42:36;0.00;0.00;0.00
65574;PMS5003;52216;54.942;73.394;2023-03-19T00:45:39;0.00;0.00;0.00
65574;PMS5003;52216;54.942;73.394;2023-03-19T00:48:44;0.00;0.00;0.00
65574;PMS5003;52216;54.942;73.394;2023-03-19T00:51:57;1.00;0.00;0.00
65574;PMS5003;52216;54.942;73.394;2023-03-19T00:55:10;0.00;0.00;0.00
65574;PMS5003;52216;54.942;73.394;2023-03-19T00:58:12;0.00;0.00;0.00
65574;PMS5003;52216;54.942;73.394;2023-03-19T01:01:16;0.00;0.00;0.00
65574;PMS5003;52216;54.942;73.394;2023-03-19T01:04:19;0.00;0.00;0.00
65574;PMS5003;52216;54.942;73.394;2023-03-19T01:07:24;0.00;0.00;0.00
65574;PMS5003;52216;54.942;73.394;2023-03-19T01:10:31;0.00;0.00;0.00
65574;PMS5003;52216;54.942;73.394;2023-03-19T01:13:40;0.00;0.00;0.00
65574;PMS5003;52216;54.942;73.394;2023-03-19T01:16:43;0.00;0.00;0.00
65574;PMS5003;52216;54.942;73.394;2023-03-19T01:19:56;0.00;0.00;0.00
65574;PMS5003;52216;54.942;73.394;2023-03-19T01:23:00;0.00;0.00;0.00
65574;PMS5003;52216;54.942;73.394;2023-03-19T01:26:03;0.00;0.00;0.00
65574;PMS5003;52216;54.942;73.394;2023-03-19T01:29:07;0.00;0.00;0.00
65574;PMS5003;52216;54.942;73.394;2023-03-19T01:32:09;0.00;0.00;0.00
65574;PMS5003;52216;54.942;73.394;2023-03-19T01:35:40;0.00;0.00;0.00
65574;PMS5003;52216;54.942;73.394;2023-03-19T01:38:43;0.00;0.00;0.00
65574;PMS5003;52216;54.942;73.394;2023-03-19T01:41:50;0.00;0.00;0.00
65574;PMS5003;52216;54.942;73.394;2023-03-19T01:45:35;0.00;0.00;0.00
65574;PMS5003;52216;54.942;73.394;2023-03-19T01:49:09;0.00;0.00;0.00
65574;PMS5003;52216;54.942;73.394;2023-03-19T01:52:14;0.00;0.00;0.00
65574;PMS5003;52216;54.942;73.394;2023-03-19T01:55:39;0.00;0.00;0.00
65574;PMS5003;52216;54.942;73.394;2023-03-19T01:58:52;0.00;0.00;0.00
65574;PMS5003;52216;54.942;73.394;2023-03-19T02:02:31;0.00;0.00;0.00
65574;PMS5003;52216;54.942;73.394;2023-03-19T02:05:38;0.00;0.00;0.00
65574;PMS5003;52216;54.942;73.394;2023-03-19T02:08:46;0.00;0.00;0.00
65574;PMS5003;52216;54.942;73.394;2023-03-19T02:11:50;0.00;0.00;0.00
65574;PMS5003;52216;54.942;73.394;2023-03-19T02:14:53;0.00;0.00;0.00
65574;PMS5003;52216;54.942;73.394;2023-03-19T02:17:56;0.00;0.00;0.00
65574;PMS5003;52216;54.942;73.394;2023-03-19T02:21:13;0.00;0.00;0.00
65574;PMS5003;52216;54.942;73.394;2023-03-19T02:24:24;0.00;0.00;0.00
65574;PMS5003;52216;54.942;73.394;2023-03-19T02:27:49;0.00;0.00;0.00
65574;PMS5003;52216;54.942;73.394;2023-03-19T02:30:54;0.00;0.00;0.00
65574;PMS5003;52216;54.942;73.394;2023-03-19T02:37:27;0.00;0.00;0.00
65574;PMS5003;52216;54.942;73.394;2023-03-19T02:40:38;0.00;0.00;0.00
65574;PMS5003;52216;54.942;73.394;2023-03-19T02:44:24;0.00;0.00;0.00
65574;PMS5003;52216;54.942;73.394;2023-03-19T02:47:37;0.00;0.00;0.00
65574;PMS5003;52216;54.942;73.394;2023-03-19T02:50:45;1.00;0.00;0.00
65574;PMS5003;52216;54.942;73.394;2023-03-19T02:53:52;0.50;0.00;0.00
65574;PMS5003;52216;54.942;73.394;2023-03-19T02:56:55;1.00;0.00;0.00
65574;PMS5003;52216;54.942;73.394;2023-03-19T02:59:59;1.00;1.00;0.00
65574;PMS5003;52216;54.942;73.394;2023-03-19T03:03:13;0.00;0.00;0.00
65574;PMS5003;52216;54.942;73.394;2023-03-19T03:06:16;0.00;0.00;0.00
65574;PMS5003;52216;54.942;73.394;2023-03-19T03:09:24;0.00;0.00;0.00
65574;PMS5003;52216;54.942;73.394;2023-03-19T03:12:37;0.75;0.00;0.00
65574;PMS5003;52216;54.942;73.394;2023-03-19T03:15:40;0.00;0.00;0.00
65574;PMS5003;52216;54.942;73.394;2023-03-19T03:18:42;0.00;0.00;0.00
65574;PMS5003;52216;54.942;73.394;2023-03-19T03:21:56;0.00;0.00;0.00
65574;PMS5003;52216;54.942;73.394;2023-03-19T03:25:00;0.00;0.00;0.00
65574;PMS5003;52216;54.942;73.394;2023-03-19T03:28:06;0.00;0.00;0.00
65574;PMS5003;52216;54.942;73.394;2023-03-19T03:31:14;0.00;0.00;0.00
65574;PMS5003;52216;54.942;73.394;2023-03-19T03:34:20;0.00;0.00;0.00
65574;PMS5003;52216;54.942;73.394;2023-03-19T03:37:23;0.00;0.00;0.00
65574;PMS5003;52216;54.942;73.394;2023-03-19T03:40:26;0.00;0.00;0.00
65574;PMS5003;52216;54.942;73.394;2023-03-19T03:43:40;0.00;0.00;0.00
65574;PMS5003;52216;54.942;73.394;2023-03-19T03:46:44;0.00;0.00;0.00
65574;PMS5003;52216;54.942;73.394;2023-03-19T03:50:03;0.00;0.00;0.00
65574;PMS5003;52216;54.942;73.394;2023-03-19T03:53:23;0.00;0.00;0.00
65574;PMS5003;52216;54.942;73.394;2023-03-19T03:56:26;0.00;0.00;0.00
65574;PMS5003;52216;54.942;73.394;2023-03-19T03:59:35;0.00;0.00;0.00
65574;PMS5003;52216;54.942;73.394;2023-03-19T04:02:39;0.00;0.00;0.00
65574;PMS5003;52216;54.942;73.394;2023-03-19T04:05:44;0.00;0.00;0.00
65574;PMS5003;52216;54.942;73.394;2023-03-19T04:08:53;0.00;0.00;0.00
65574;PMS5003;52216;54.942;73.394;2023-03-19T04:12:01;0.00;0.00;0.00
65574;PMS5003;52216;54.942;73.394;2023-03-19T04:15:04;0.00;0.00;0.00
65574;PMS5003;52216;54.942;73.394;2023-03-19T04:18:06;0.00;0.00;0.00
65574;PMS5003;52216;54.942;73.394;2023-03-19T04:21:08;0.00;0.00;0.00
65574;PMS5003;52216;54.942;73.394;2023-03-19T04:24:12;0.00;0.00;0.00
65574;PMS5003;52216;54.942;73.394;2023-03-19T04:27:15;0.00;0.00;0.00
65574;PMS5003;52216;54.942;73.394;2023-03-19T04:30:29;0.00;0.00;0.00
65574;PMS5003;52216;54.942;73.394;2023-03-19T04:33:31;0.00;0.00;0.00
65574;PMS5003;52216;54.942;73.394;2023-03-19T04:36:33;0.00;0.00;0.00
65574;PMS5003;52216;54.942;73.394;2023-03-19T04:39:45;0.00;0.00;0.00
65574;PMS5003;52216;54.942;73.394;2023-03-19T04:42:47;0.00;0.00;0.00
65574;PMS5003;52216;54.942;73.394;2023-03-19T04:46:20;0.00;0.00;0.00
65574;PMS5003;52216;54.942;73.394;2023-03-19T04:49:22;0.00;0.00;0.00
65574;PMS5003;52216;54.942;73.394;2023-03-19T04:52:26;0.00;0.00;0.00
65574;PMS5003;52216;54.942;73.394;2023-03-19T04:55:29;0.00;0.00;0.00
65574;PMS5003;52216;54.942;73.394;2023-03-19T04:58:50;0.00;0.00;0.00
65574;PMS5003;52216;54.942;73.394;2023-03-19T05:02:03;0.00;0.00;0.00
65574;PMS5003;52216;54.942;73.394;2023-03-19T05:05:06;0.00;0.00;0.00
65574;PMS5003;52216;54.942;73.394;2023-03-19T05:08:10;0.00;0.00;0.00
65574;PMS5003;52216;54.942;73.394;2023-03-19T05:11:12;0.00;0.00;0.00
65574;PMS5003;52216;54.942;73.394;2023-03-19T05:14:30;0.00;0.00;0.00
65574;PMS5003;52216;54.942;73.394;2023-03-19T05:17:51;0.00;0.00;0.00
65574;PMS5003;52216;54.942;73.394;2023-03-19T05:20:56;0.00;0.00;0.00
65574;PMS5003;52216;54.942;73.394;2023-03-19T05:24:01;0.00;0.00;0.00
65574;PMS5003;52216;54.942;73.394;2023-03-19T05:27:05;0.00;0.00;0.00
65574;PMS5003;52216;54.942;73.394;2023-03-19T05:30:43;0.00;0.00;0.00
65574;PMS5003;52216;54.942;73.394;2023-03-19T05:34:09;0.00;0.00;0.00
65574;PMS5003;52216;54.942;73.394;2023-03-19T05:37:12;0.00;0.00;0.00
65574;PMS5003;52216;54.942;73.394;2023-03-19T05:40:54;0.00;0.00;0.00
65574;PMS5003;52216;54.942;73.394;2023-03-19T05:44:07;0.00;0.00;0.00
65574;PMS5003;52216;54.942;73.394;2023-03-19T05:47:30;0.00;0.00;0.00
65574;PMS5003;52216;54.942;73.394;2023-03-19T05:50:52;0.00;0.00;0.00
65574;PMS5003;52216;54.942;73.394;2023-03-19T05:53:56;0.00;0.00;0.00
65574;PMS5003;52216;54.942;73.394;2023-03-19T05:57:08;0.00;0.00;0.00
65574;PMS5003;52216;54.942;73.394;2023-03-19T06:00:53;0.00;0.00;0.00
65574;PMS5003;52216;54.942;73.394;2023-03-19T06:03:58;0.00;0.00;0.00
65574;PMS5003;52216;54.942;73.394;2023-03-19T06:07:01;0.00;0.00;0.00
65574;PMS5003;52216;54.942;73.394;2023-03-19T06:10:13;0.00;0.00;0.00
65574;PMS5003;52216;54.942;73.394;2023-03-19T06:13:16;0.00;0.00;0.00
65574;PMS5003;52216;54.942;73.394;2023-03-19T06:16:27;0.00;0.00;0.00
65574;PMS5003;52216;54.942;73.394;2023-03-19T06:19:40;0.00;0.00;0.00
65574;PMS5003;52216;54.942;73.394;2023-03-19T06:22:44;0.00;0.00;0.00
65574;PMS5003;52216;54.942;73.394;2023-03-19T06:25:47;0.00;0.00;0.00
65574;PMS5003;52216;54.942;73.394;2023-03-19T06:29:00;0.00;0.00;0.00
65574;PMS5003;52216;54.942;73.394;2023-03-19T06:32:03;0.00;0.00;0.00
65574;PMS5003;52216;54.942;73.394;2023-03-19T06:35:15;0.00;0.00;0.00
65574;PMS5003;52216;54.942;73.394;2023-03-19T06:38:20;0.00;0.00;0.00
65574;PMS5003;52216;54.942;73.394;2023-03-19T06:41:28;0.00;0.00;0.00
65574;PMS5003;52216;54.942;73.394;2023-03-19T06:44:44;0.00;0.00;0.00
65574;PMS5003;52216;54.942;73.394;2023-03-19T06:47:48;0.00;0.00;0.00
65574;PMS5003;52216;54.942;73.394;2023-03-19T06:50:51;0.00;0.00;0.00
65574;PMS5003;52216;54.942;73.394;2023-03-19T06:53:53;0.00;0.00;0.00
65574;PMS5003;52216;54.942;73.394;2023-03-19T06:56:57;0.00;0.00;0.00
65574;PMS5003;52216;54.942;73.394;2023-03-19T07:00:00;0.00;0.00;0.00
65574;PMS5003;52216;54.942;73.394;2023-03-19T07:03:02;0.00;0.00;0.00
65574;PMS5003;52216;54.942;73.394;2023-03-19T07:06:10;0.00;0.00;0.00
65574;PMS5003;52216;54.942;73.394;2023-03-19T07:09:12;0.00;0.00;0.00
65574;PMS5003;52216;54.942;73.394;2023-03-19T07:12:15;0.00;0.00;0.00
65574;PMS5003;52216;54.942;73.394;2023-03-19T07:15:17;0.00;0.00;0.00
65574;PMS5003;52216;54.942;73.394;2023-03-19T07:18:20;0.00;0.00;0.00
65574;PMS5003;52216;54.942;73.394;2023-03-19T07:21:22;0.00;0.00;0.00
65574;PMS5003;52216;54.942;73.394;2023-03-19T07:24:30;0.00;0.00;0.00
65574;PMS5003;52216;54.942;73.394;2023-03-19T07:27:32;0.00;0.00;0.00
65574;PMS5003;52216;54.942;73.394;2023-03-19T07:30:40;0.00;0.00;0.00
65574;PMS5003;52216;54.942;73.394;2023-03-19T07:33:43;0.00;0.00;0.00
65574;PMS5003;52216;54.942;73.394;2023-03-19T07:36:46;0.00;0.00;0.00
65574;PMS5003;52216;54.942;73.394;2023-03-19T07:39:49;0.00;0.00;0.00
65574;PMS5003;52216;54.942;73.394;2023-03-19T07:42:51;0.00;0.00;0.00
65574;PMS5003;52216;54.942;73.394;2023-03-19T07:45:54;0.00;0.00;0.00
65574;PMS5003;52216;54.942;73.394;2023-03-19T07:48:56;0.00;0.00;0.00
65574;PMS5003;52216;54.942;73.394;2023-03-19T07:51:58;0.00;0.00;0.00
65574;PMS5003;52216;54.942;73.394;2023-03-19T07:55:05;0.00;0.00;0.00
65574;PMS5003;52216;54.942;73.394;2023-03-19T07:58:12;0.00;0.00;0.00
65574;PMS5003;52216;54.942;73.394;2023-03-19T08:01:14;0.00;0.00;0.00
65574;PMS5003;52216;54.942;73.394;2023-03-19T08:04:27;0.00;0.00;0.00
65574;PMS5003;52216;54.942;73.394;2023-03-19T08:07:41;0.00;0.00;0.00
65574;PMS5003;52216;54.942;73.394;2023-03-19T08:10:43;0.00;0.00;0.00
65574;PMS5003;52216;54.942;73.394;2023-03-19T08:13:46;0.00;0.00;0.00
65574;PMS5003;52216;54.942;73.394;2023-03-19T08:16:50;0.00;0.00;0.00
65574;PMS5003;52216;54.942;73.394;2023-03-19T08:20:00;0.00;0.00;0.00
65574;PMS5003;52216;54.942;73.394;2023-03-19T08:23:02;0.00;0.00;0.00
65574;PMS5003;52216;54.942;73.394;2023-03-19T08:26:05;0.00;0.00;0.00
65574;PMS5003;52216;54.942;73.394;2023-03-19T08:29:08;0.00;0.00;0.00
65574;PMS5003;52216;54.942;73.394;2023-03-19T08:32:11;0.00;0.00;0.00
65574;PMS5003;52216;54.942;73.394;2023-03-19T08:35:13;0.00;0.00;0.00
65574;PMS5003;52216;54.942;73.394;2023-03-19T08:38:15;0.00;0.00;0.00
65574;PMS5003;52216;54.942;73.394;2023-03-19T08:41:18;0.00;0.00;0.00
65574;PMS5003;52216;54.942;73.394;2023-03-19T08:44:20;0.00;0.00;0.00
65574;PMS5003;52216;54.942;73.394;2023-03-19T08:47:23;0.00;0.00;0.00
65574;PMS5003;52216;54.942;73.394;2023-03-19T08:50:27;0.00;0.00;0.00
65574;PMS5003;52216;54.942;73.394;2023-03-19T08:53:30;0.00;0.00;0.00
65574;PMS5003;52216;54.942;73.394;2023-03-19T08:56:33;0.00;0.00;0.00
65574;PMS5003;52216;54.942;73.394;2023-03-19T08:59:36;0.00;0.00;0.00
65574;PMS5003;52216;54.942;73.394;2023-03-19T09:02:38;0.00;0.00;0.00
65574;PMS5003;52216;54.942;73.394;2023-03-19T09:05:42;0.00;0.00;0.00
65574;PMS5003;52216;54.942;73.394;2023-03-19T09:08:50;0.00;0.00;0.00
65574;PMS5003;52216;54.942;73.394;2023-03-19T09:11:52;0.00;0.00;0.00
65574;PMS5003;52216;54.942;73.394;2023-03-19T09:14:54;0.00;0.00;0.00
65574;PMS5003;52216;54.942;73.394;2023-03-19T09:17:58;0.00;0.00;0.00
65574;PMS5003;52216;54.942;73.394;2023-03-19T09:21:00;0.00;0.00;0.00
65574;PMS5003;52216;54.942;73.394;2023-03-19T09:24:05;0.00;0.00;0.00
65574;PMS5003;52216;54.942;73.394;2023-03-19T09:27:09;0.00;0.00;0.00
65574;PMS5003;52216;54.942;73.394;2023-03-19T09:30:11;0.00;0.00;0.00
65574;PMS5003;52216;54.942;73.394;2023-03-19T09:33:18;0.00;0.00;0.00
65574;PMS5003;52216;54.942;73.394;2023-03-19T09:36:21;0.00;0.00;0.00
65574;PMS5003;52216;54.942;73.394;2023-03-19T09:39:23;0.00;0.00;0.00
65574;PMS5003;52216;54.942;73.394;2023-03-19T09:42:30;0.00;0.00;0.00
65574;PMS5003;52216;54.942;73.394;2023-03-19T09:45:41;0.00;0.00;0.00
65574;PMS5003;52216;54.942;73.394;2023-03-19T09:52:06;0.00;0.00;0.00
65574;PMS5003;52216;54.942;73.394;2023-03-19T09:58:27;0.00;0.00;0.00
65574;PMS5003;52216;54.942;73.394;2023-03-19T10:01:32;0.00;0.00;0.00
65574;PMS5003;52216;54.942;73.394;2023-03-19T10:04:41;0.00;0.00;0.00
65574;PMS5003;52216;54.942;73.394;2023-03-19T10:17:20;0.00;0.00;0.00
65574;PMS5003;52216;54.942;73.394;2023-03-19T10:20:37;0.50;0.00;0.00
65574;PMS5003;52216;54.942;73.394;2023-03-19T10:26:45;0.00;0.00;0.00
65574;PMS5003;52216;54.942;73.394;2023-03-19T10:29:49;0.00;0.00;0.00
65574;PMS5003;52216;54.942;73.394;2023-03-19T10:32:58;0.00;0.00;0.00
65574;PMS5003;52216;54.942;73.394;2023-03-19T10:36:06;0.00;0.00;0.00
65574;PMS5003;52216;54.942;73.394;2023-03-19T10:39:09;0.00;0.00;0.00
65574;PMS5003;52216;54.942;73.394;2023-03-19T10:45:34;0.75;0.75;0.00
65574;PMS5003;52216;54.942;73.394;2023-03-19T10:48:48;0.00;0.00;0.00
65574;PMS5003;52216;54.942;73.394;2023-03-19T10:51:51;0.00;0.00;0.00
65574;PMS5003;52216;54.942;73.394;2023-03-19T10:55:13;0.00;0.00;0.00
65574;PMS5003;52216;54.942;73.394;2023-03-19T10:58:17;0.00;0.00;0.00
65574;PMS5003;52216;54.942;73.394;2023-03-19T11:01:20;0.00;0.00;0.00
65574;PMS5003;52216;54.942;73.394;2023-03-19T11:04:23;0.00;0.00;0.00
65574;PMS5003;52216;54.942;73.394;2023-03-19T11:07:27;0.00;0.00;0.00
65574;PMS5003;52216;54.942;73.394;2023-03-19T11:10:43;0.00;0.00;0.00
65574;PMS5003;52216;54.942;73.394;2023-03-19T11:13:51;0.00;0.00;0.00
65574;PMS5003;52216;54.942;73.394;2023-03-19T11:17:01;0.00;0.00;0.00
65574;PMS5003;52216;54.942;73.394;2023-03-19T11:20:19;0.00;0.00;0.00
65574;PMS5003;52216;54.942;73.394;2023-03-19T11:23:27;0.00;0.00;0.00
65574;PMS5003;52216;54.942;73.394;2023-03-19T11:26:30;0.00;0.00;0.00
65574;PMS5003;52216;54.942;73.394;2023-03-19T11:29:36;0.00;0.00;0.00
65574;PMS5003;52216;54.942;73.394;2023-03-19T11:52:32;0.00;0.00;0.00
65574;PMS5003;52216;54.942;73.394;2023-03-19T11:59:12;0.00;0.00;0.00
65574;PMS5003;52216;54.942;73.394;2023-03-19T12:05:31;0.00;0.00;0.00
65574;PMS5003;52216;54.942;73.394;2023-03-19T12:08:44;0.00;0.00;0.00
65574;PMS5003;52216;54.942;73.394;2023-03-19T12:12:38;0.00;0.00;0.00
65574;PMS5003;52216;54.942;73.394;2023-03-19T12:28:34;0.00;0.00;0.00
65574;PMS5003;52216;54.942;73.394;2023-03-19T12:31:50;0.00;0.00;0.00
65574;PMS5003;52216;54.942;73.394;2023-03-19T12:35:00;0.00;0.00;0.00
65574;PMS5003;52216;54.942;73.394;2023-03-19T12:38:19;0.00;0.00;0.00
65574;PMS5003;52216;54.942;73.394;2023-03-19T12:41:26;0.00;0.00;0.00
65574;PMS5003;52216;54.942;73.394;2023-03-19T12:44:42;0.00;0.00;0.00
65574;PMS5003;52216;54.942;73.394;2023-03-19T12:47:53;0.00;0.00;0.00
65574;PMS5003;52216;54.942;73.394;2023-03-19T12:51:01;0.00;0.00;0.00
65574;PMS5003;52216;54.942;73.394;2023-03-19T12:54:46;0.00;0.00;0.00
65574;PMS5003;52216;54.942;73.394;2023-03-19T12:57:57;0.00;0.00;0.00
65574;PMS5003;52216;54.942;73.394;2023-03-19T13:01:15;0.00;0.00;0.00
65574;PMS5003;52216;54.942;73.394;2023-03-19T13:04:26;0.00;0.00;0.00
65574;PMS5003;52216;54.942;73.394;2023-03-19T13:07:45;0.00;0.00;0.00
65574;PMS5003;52216;54.942;73.394;2023-03-19T13:11:02;0.00;0.00;0.00
65574;PMS5003;52216;54.942;73.394;2023-03-19T13:23:34;0.00;0.00;0.00
65574;PMS5003;52216;54.942;73.394;2023-03-19T13:26:37;0.00;0.00;0.00
65574;PMS5003;52216;54.942;73.394;2023-03-19T13:33:21;0.00;0.00;0.00
65574;PMS5003;52216;54.942;73.394;2023-03-19T13:36:37;0.00;0.00;0.00
65574;PMS5003;52216;54.942;73.394;2023-03-19T13:39:44;0.00;0.00;0.00
65574;PMS5003;52216;54.942;73.394;2023-03-19T13:42:54;0.00;0.00;0.00
65574;PMS5003;52216;54.942;73.394;2023-03-19T13:46:34;0.00;0.00;0.00
65574;PMS5003;52216;54.942;73.394;2023-03-19T13:50:00;0.00;0.00;0.00
65574;PMS5003;52216;54.942;73.394;2023-03-19T13:56:16;0.00;0.00;0.00
65574;PMS5003;52216;54.942;73.394;2023-03-19T13:59:26;1.00;0.00;0.00
65574;PMS5003;52216;54.942;73.394;2023-03-19T14:05:41;0.00;0.00;0.00
65574;PMS5003;52216;54.942;73.394;2023-03-19T14:08:55;0.00;0.00;0.00
65574;PMS5003;52216;54.942;73.394;2023-03-19T14:12:11;0.00;0.00;0.00
65574;PMS5003;52216;54.942;73.394;2023-03-19T14:15:26;0.00;0.00;0.00
65574;PMS5003;52216;54.942;73.394;2023-03-19T14:18:30;0.00;0.00;0.00
65574;PMS5003;52216;54.942;73.394;2023-03-19T14:21:38;0.00;0.00;0.00
65574;PMS5003;52216;54.942;73.394;2023-03-19T14:24:53;0.00;0.00;0.00
65574;PMS5003;52216;54.942;73.394;2023-03-19T14:27:58;0.00;0.00;0.00
65574;PMS5003;52216;54.942;73.394;2023-03-19T14:31:01;0.00;0.00;0.00
65574;PMS5003;52216;54.942;73.394;2023-03-19T14:34:17;0.00;0.00;0.00
65574;PMS5003;52216;54.942;73.394;2023-03-19T14:37:25;0.00;0.00;0.00
65574;PMS5003;52216;54.942;73.394;2023-03-19T14:40:34;0.00;0.00;0.00
65574;PMS5003;52216;54.942;73.394;2023-03-19T14:43:55;0.00;0.00;0.00
65574;PMS5003;52216;54.942;73.394;2023-03-19T14:47:16;0.00;0.00;0.00
65574;PMS5003;52216;54.942;73.394;2023-03-19T14:56:32;0.00;0.00;0.00
65574;PMS5003;52216;54.942;73.394;2023-03-19T14:59:47;0.00;0.00;0.00
65574;PMS5003;52216;54.942;73.394;2023-03-19T15:02:50;0.00;0.00;0.00
65574;PMS5003;52216;54.942;73.394;2023-03-19T15:05:57;0.00;0.00;0.00
65574;PMS5003;52216;54.942;73.394;2023-03-19T15:09:04;0.00;0.00;0.00
65574;PMS5003;52216;54.942;73.394;2023-03-19T15:12:21;0.00;0.00;0.00
65574;PMS5003;52216;54.942;73.394;2023-03-19T15:18:47;0.00;0.00;0.00
65574;PMS5003;52216;54.942;73.394;2023-03-19T15:21:50;0.00;0.00;0.00
65574;PMS5003;52216;54.942;73.394;2023-03-19T15:24:52;0.00;0.00;0.00
65574;PMS5003;52216;54.942;73.394;2023-03-19T15:28:10;0.00;0.00;0.00
65574;PMS5003;52216;54.942;73.394;2023-03-19T15:31:15;0.00;0.00;0.00
65574;PMS5003;52216;54.942;73.394;2023-03-19T15:37:20;0.00;0.00;0.00
65574;PMS5003;52216;54.942;73.394;2023-03-19T15:41:09;0.00;0.00;0.00
65574;PMS5003;52216;54.942;73.394;2023-03-19T15:44:36;0.00;0.00;0.00
65574;PMS5003;52216;54.942;73.394;2023-03-19T15:47:45;0.00;0.00;0.00
65574;PMS5003;52216;54.942;73.394;2023-03-19T15:51:06;0.00;0.00;0.00
65574;PMS5003;52216;54.942;73.394;2023-03-19T15:54:10;0.00;0.00;0.00
65574;PMS5003;52216;54.942;73.394;2023-03-19T15:57:13;0.50;0.00;0.00
65574;PMS5003;52216;54.942;73.394;2023-03-19T16:00:18;0.00;0.00;0.00
65574;PMS5003;52216;54.942;73.394;2023-03-19T16:03:25;0.00;0.00;0.00
65574;PMS5003;52216;54.942;73.394;2023-03-19T16:06:31;0.00;0.00;0.00
65574;PMS5003;52216;54.942;73.394;2023-03-19T16:09:45;0.00;0.00;0.00
65574;PMS5003;52216;54.942;73.394;2023-03-19T16:12:58;0.00;0.00;0.00
65574;PMS5003;52216;54.942;73.394;2023-03-19T16:19:25;0.00;0.00;0.00
65574;PMS5003;52216;54.942;73.394;2023-03-19T16:22:29;0.00;0.00;0.00
65574;PMS5003;52216;54.942;73.394;2023-03-19T16:25:33;0.00;0.00;0.00
65574;PMS5003;52216;54.942;73.394;2023-03-19T16:28:35;0.00;0.00;0.00
65574;PMS5003;52216;54.942;73.394;2023-03-19T16:31:42;0.00;0.00;0.00
65574;PMS5003;52216;54.942;73.394;2023-03-19T16:34:49;0.00;0.00;0.00
65574;PMS5003;52216;54.942;73.394;2023-03-19T16:38:22;0.00;0.00;0.00
65574;PMS5003;52216;54.942;73.394;2023-03-19T16:41:29;0.00;0.00;0.00
65574;PMS5003;52216;54.942;73.394;2023-03-19T16:44:38;0.00;0.00;0.00
65574;PMS5003;52216;54.942;73.394;2023-03-19T16:47:51;0.00;0.00;0.00
65574;PMS5003;52216;54.942;73.394;2023-03-19T16:50:54;1.00;0.75;0.00
65574;PMS5003;52216;54.942;73.394;2023-03-19T16:53:57;0.00;0.00;0.00
65574;PMS5003;52216;54.942;73.394;2023-03-19T16:56:59;1.00;1.00;0.00
65574;PMS5003;52216;54.942;73.394;2023-03-19T17:00:02;3.00;2.00;0.00
65574;PMS5003;52216;54.942;73.394;2023-03-19T17:03:09;2.75;2.00;0.00
65574;PMS5003;52216;54.942;73.394;2023-03-19T17:06:20;2.00;1.00;0.00
65574;PMS5003;52216;54.942;73.394;2023-03-19T17:09:28;2.50;2.00;0.00
65574;PMS5003;52216;54.942;73.394;2023-03-19T17:12:30;1.50;1.50;1.00
65574;PMS5003;52216;54.942;73.394;2023-03-19T17:15:36;4.00;4.00;0.50
65574;PMS5003;52216;54.942;73.394;2023-03-19T17:18:40;4.00;3.75;0.00
65574;PMS5003;52216;54.942;73.394;2023-03-19T17:21:45;3.75;3.75;1.00
65574;PMS5003;52216;54.942;73.394;2023-03-19T17:24:48;5.75;5.00;2.00
65574;PMS5003;52216;54.942;73.394;2023-03-19T17:27:51;10.00;8.00;4.00
65574;PMS5003;52216;54.942;73.394;2023-03-19T17:30:53;16.00;14.67;8.00
65574;PMS5003;52216;54.942;73.394;2023-03-19T17:34:30;18.00;17.00;9.50
65574;PMS5003;52216;54.942;73.394;2023-03-19T17:37:26;20.50;17.00;10.00
65574;PMS5003;52216;54.942;73.394;2023-03-19T17:40:30;26.75;21.50;13.00
65574;PMS5003;52216;54.942;73.394;2023-03-19T17:43:43;28.25;23.00;14.00
65574;PMS5003;52216;54.942;73.394;2023-03-19T17:46:52;31.00;23.00;15.00
65574;PMS5003;52216;54.942;73.394;2023-03-19T17:49:55;29.50;25.00;15.50
65574;PMS5003;52216;54.942;73.394;2023-03-19T17:52:58;32.67;26.00;17.00
65574;PMS5003;52216;54.942;73.394;2023-03-19T17:56:01;34.00;27.00;17.00
65574;PMS5003;52216;54.942;73.394;2023-03-19T17:59:03;35.00;28.00;17.00
65574;PMS5003;52216;54.942;73.394;2023-03-19T18:02:28;35.00;28.00;17.00
65574;PMS5003;52216;54.942;73.394;2023-03-19T18:05:29;35.00;28.00;17.00
65574;PMS5003;52216;54.942;73.394;2023-03-19T18:08:37;34.00;27.00;16.00
65574;PMS5003;52216;54.942;73.394;2023-03-19T18:11:48;33.50;26.00;16.50
65574;PMS5003;52216;54.942;73.394;2023-03-19T18:14:51;33.00;25.00;15.00
65574;PMS5003;52216;54.942;73.394;2023-03-19T18:18:03;31.75;25.00;15.00
65574;PMS5003;52216;54.942;73.394;2023-03-19T18:21:08;30.00;25.00;15.00
65574;PMS5003;52216;54.942;73.394;2023-03-19T18:24:14;28.00;23.00;13.00
65574;PMS5003;52216;54.942;73.394;2023-03-19T18:27:16;26.50;21.00;13.50
65574;PMS5003;52216;54.942;73.394;2023-03-19T18:30:19;27.00;23.00;13.00
65574;PMS5003;52216;54.942;73.394;2023-03-19T18:33:24;26.00;22.00;13.00
65574;PMS5003;52216;54.942;73.394;2023-03-19T18:36:33;27.00;21.00;13.00
65574;PMS5003;52216;54.942;73.394;2023-03-19T18:39:37;21.50;19.50;11.50
65574;PMS5003;52216;54.942;73.394;2023-03-19T18:42:40;21.50;19.50;11.25
65574;PMS5003;52216;54.942;73.394;2023-03-19T18:45:42;20.50;19.00;10.00
65574;PMS5003;52216;54.942;73.394;2023-03-19T18:48:55;19.00;16.25;10.00
65574;PMS5003;52216;54.942;73.394;2023-03-19T18:51:58;20.00;17.00;9.00
65574;PMS5003;52216;54.942;73.394;2023-03-19T18:55:00;19.00;16.00;9.00
65574;PMS5003;52216;54.942;73.394;2023-03-19T18:58:03;19.50;16.50;8.00
65574;PMS5003;52216;54.942;73.394;2023-03-19T19:01:08;20.67;18.00;10.00
65574;PMS5003;52216;54.942;73.394;2023-03-19T19:04:15;14.75;14.00;6.75
65574;PMS5003;52216;54.942;73.394;2023-03-19T19:07:17;12.00;11.50;4.00
65574;PMS5003;52216;54.942;73.394;2023-03-19T19:10:19;12.00;12.00;3.50
65574;PMS5003;52216;54.942;73.394;2023-03-19T19:13:22;11.00;10.00;3.00
65574;PMS5003;52216;54.942;73.394;2023-03-19T19:16:30;9.75;9.00;2.25
65574;PMS5003;52216;54.942;73.394;2023-03-19T19:19:36;7.00;7.00;1.00
65574;PMS5003;52216;54.942;73.394;2023-03-19T19:23:00;7.00;5.50;2.00
65574;PMS5003;52216;54.942;73.394;2023-03-19T19:26:03;5.75;5.00;1.00
65574;PMS5003;52216;54.942;73.394;2023-03-19T19:29:08;3.00;2.75;1.00
65574;PMS5003;52216;54.942;73.394;2023-03-19T19:32:20;3.00;3.00;1.00
65574;PMS5003;52216;54.942;73.394;2023-03-19T19:35:25;3.00;3.00;1.00
65574;PMS5003;52216;54.942;73.394;2023-03-19T19:38:38;3.00;3.00;0.00
65574;PMS5003;52216;54.942;73.394;2023-03-19T19:41:42;3.00;3.00;1.00
65574;PMS5003;52216;54.942;73.394;2023-03-19T19:44:51;5.00;4.00;1.00